createdAt,value
2017-09-06T00:00:11.516Z,2.67
2017-09-06T00:02:38.988Z,2.13
2017-09-06T00:05:06.455Z,2.40
2017-09-06T00:07:33.939Z,1.60
2017-09-06T00:10:01.500Z,2.80
2017-09-06T00:12:28.997Z,1.80
2017-09-06T00:14:56.472Z,1.40
2017-09-06T00:17:23.947Z,1.50
2017-09-06T00:19:51.435Z,1.27
2017-09-06T00:22:18.917Z,1.17
2017-09-06T00:24:46.420Z,1.67
2017-09-06T00:27:13.889Z,1.90
2017-09-06T00:29:41.371Z,2.80
2017-09-06T00:32:08.932Z,1.47
2017-09-06T00:34:36.401Z,2.13
2017-09-06T00:37:03.891Z,1.80
2017-09-06T00:39:31.360Z,4.50
2017-09-06T00:41:58.828Z,1.23
2017-09-06T00:44:26.317Z,1.60
2017-09-06T00:46:53.797Z,2.20
2017-09-06T00:49:21.291Z,2.30
2017-09-06T00:51:48.769Z,4.43
2017-09-06T00:54:16.242Z,1.93
2017-09-06T00:56:43.727Z,1.77
2017-09-06T00:59:11.206Z,2.30
2017-09-06T01:01:38.728Z,1.90
2017-09-06T01:04:06.215Z,2.00
2017-09-06T01:06:33.693Z,1.70
2017-09-06T01:09:01.180Z,2.00
2017-09-06T01:11:28.648Z,2.67
2017-09-06T01:13:56.144Z,1.90
2017-09-06T01:16:23.616Z,2.53
2017-09-06T01:18:51.086Z,1.87
2017-09-06T01:21:18.568Z,1.17
2017-09-06T01:23:46.036Z,1.57
2017-09-06T01:26:13.548Z,1.57
2017-09-06T01:28:41.019Z,5.30
2017-09-06T01:31:08.531Z,1.50
2017-09-06T01:33:36.017Z,1.57
2017-09-06T01:36:03.488Z,3.10
2017-09-06T01:38:30.984Z,2.23
2017-09-06T01:40:58.455Z,2.43
2017-09-06T01:43:26.023Z,1.23
2017-09-06T01:45:53.503Z,1.63
2017-09-06T01:48:20.980Z,3.27
2017-09-06T01:50:48.475Z,3.50
2017-09-06T01:53:15.948Z,1.50
2017-09-06T01:55:43.510Z,2.53
2017-09-06T01:58:11.071Z,1.30
2017-09-06T02:00:38.540Z,1.50
2017-09-06T02:03:06.088Z,3.07
2017-09-06T02:05:33.647Z,1.53
2017-09-06T02:08:01.116Z,2.30
2017-09-06T02:10:28.668Z,2.80
2017-09-06T02:12:56.136Z,1.80
2017-09-06T02:15:23.633Z,5.50
2017-09-06T02:17:51.101Z,1.70
2017-09-06T02:20:18.608Z,2.53
2017-09-06T02:22:46.096Z,1.60
2017-09-06T02:25:13.566Z,1.73
2017-09-06T02:27:41.057Z,1.50
2017-09-06T02:30:08.532Z,2.50
2017-09-06T02:32:36.012Z,2.13
2017-09-06T02:35:03.504Z,1.53
2017-09-06T02:37:31.012Z,1.37
2017-09-06T02:39:58.578Z,1.50
2017-09-06T02:42:26.048Z,1.47
2017-09-06T02:44:53.516Z,1.50
2017-09-06T02:47:21.048Z,1.50
2017-09-06T02:49:48.516Z,1.30
2017-09-06T02:52:16.027Z,3.43
2017-09-06T02:54:43.500Z,3.03
2017-09-06T02:57:10.987Z,3.10
2017-09-06T02:59:38.472Z,1.50
2017-09-06T03:02:05.944Z,1.70
2017-09-06T03:04:33.447Z,1.63
2017-09-06T03:07:00.912Z,1.90
2017-09-06T03:09:28.385Z,1.53
2017-09-06T03:11:56.036Z,3.70
2017-09-06T03:14:23.504Z,1.33
2017-09-06T03:16:50.991Z,2.10
2017-09-06T03:19:18.468Z,2.57
2017-09-06T03:21:45.964Z,1.80
2017-09-06T03:24:13.443Z,1.97
2017-09-06T03:26:40.921Z,2.90
2017-09-06T03:29:08.415Z,3.07
2017-09-06T03:31:35.895Z,1.90
2017-09-06T03:34:03.361Z,1.77
2017-09-06T03:36:30.843Z,4.50
2017-09-06T03:38:58.315Z,1.53
2017-09-06T03:41:25.839Z,2.37
2017-09-06T03:43:53.304Z,2.60
2017-09-06T03:46:20.771Z,3.87
2017-09-06T03:48:48.308Z,1.87
2017-09-06T03:51:15.781Z,2.53
2017-09-06T03:53:43.277Z,6.93
2017-09-06T03:56:10.801Z,4.80
2017-09-06T03:58:38.280Z,3.33
2017-09-06T04:01:05.763Z,2.17
2017-09-06T04:03:33.231Z,3.03
2017-09-06T04:06:00.820Z,3.07
2017-09-06T04:08:28.291Z,2.53
2017-09-06T04:10:55.773Z,2.33
2017-09-06T04:13:23.260Z,2.40
2017-09-06T04:15:50.731Z,2.50
2017-09-06T04:18:18.307Z,2.73
2017-09-06T04:20:45.776Z,3.37
2017-09-06T04:23:13.243Z,3.70
2017-09-06T04:25:40.784Z,2.57
2017-09-06T04:28:08.253Z,3.37
2017-09-06T04:30:35.752Z,3.07
2017-09-06T04:33:03.263Z,5.73
2017-09-06T04:35:30.730Z,2.60
2017-09-06T04:37:58.216Z,3.97
2017-09-06T04:40:25.688Z,3.23
2017-09-06T04:42:53.179Z,2.93
2017-09-06T04:45:20.647Z,3.70
2017-09-06T04:47:48.211Z,2.37
2017-09-06T04:50:15.694Z,2.33
2017-09-06T04:52:43.175Z,7.23
2017-09-06T04:55:10.687Z,3.83
2017-09-06T04:57:38.155Z,3.30
2017-09-06T05:00:05.628Z,3.07
2017-09-06T05:02:33.111Z,2.60
2017-09-06T05:05:00.592Z,2.57
2017-09-06T05:07:28.080Z,3.77
2017-09-06T05:09:55.561Z,2.97
2017-09-06T05:12:23.160Z,5.77
2017-09-06T05:14:50.659Z,4.10
2017-09-06T05:17:18.138Z,4.50
2017-09-06T05:19:45.685Z,4.47
2017-09-06T05:22:13.156Z,3.63
2017-09-06T05:24:40.630Z,5.63
2017-09-06T05:27:08.111Z,4.10
2017-09-06T05:29:35.584Z,8.17
2017-09-06T05:32:03.076Z,4.20
2017-09-06T05:34:30.548Z,6.90
2017-09-06T05:36:58.019Z,4.83
2017-09-06T05:39:25.502Z,4.87
2017-09-06T05:41:52.990Z,5.23
2017-09-06T05:44:20.486Z,6.80
2017-09-06T05:46:47.953Z,5.07
2017-09-06T05:49:15.428Z,6.23
2017-09-06T05:51:42.907Z,4.77
2017-09-06T05:54:10.387Z,7.03
2017-09-06T05:56:37.885Z,10.87
2017-09-06T05:59:05.356Z,5.00
2017-09-06T06:01:32.828Z,5.37
2017-09-06T06:04:00.303Z,5.30
2017-09-06T06:06:27.884Z,6.67
2017-09-06T06:08:55.376Z,7.93
2017-09-06T06:11:22.840Z,6.90
2017-09-06T06:13:50.316Z,5.77
2017-09-06T06:16:17.810Z,5.20
2017-09-06T06:18:45.276Z,4.90
2017-09-06T06:21:12.764Z,5.80
2017-09-06T06:23:40.235Z,6.00
2017-09-06T06:26:07.708Z,7.60
2017-09-06T06:28:35.188Z,8.13
2017-09-06T06:31:02.659Z,8.57
2017-09-06T06:33:30.219Z,6.90
2017-09-06T06:35:57.684Z,6.93
2017-09-06T06:38:25.156Z,6.20
2017-09-06T06:40:52.640Z,8.47
2017-09-06T06:43:20.111Z,6.17
2017-09-06T06:45:47.613Z,6.47
2017-09-06T06:48:15.089Z,8.93
2017-09-06T06:50:42.555Z,8.30
2017-09-06T06:53:10.035Z,5.37
2017-09-06T06:55:37.510Z,5.33
2017-09-06T06:58:05.108Z,5.63
2017-09-06T07:00:32.588Z,10.13
2017-09-06T07:03:00.124Z,5.17
2017-09-06T07:05:27.604Z,5.90
2017-09-06T07:07:55.068Z,5.83
2017-09-06T07:10:22.563Z,5.30
2017-09-06T07:12:50.052Z,5.50
2017-09-06T07:15:17.620Z,6.93
2017-09-06T07:17:45.103Z,6.27
2017-09-06T07:20:12.569Z,5.10
2017-09-06T07:22:40.066Z,5.10
2017-09-06T09:16:10.593Z,8.37
2017-09-06T09:18:38.092Z,6.33
2017-09-06T09:21:05.564Z,10.53
2017-09-06T09:23:33.032Z,5.00
2017-09-06T09:26:00.511Z,9.57
2017-09-06T09:28:27.980Z,7.40
2017-09-06T09:30:55.579Z,9.13
2017-09-06T09:33:23.056Z,7.70
2017-09-06T09:35:50.533Z,11.33
2017-09-06T09:38:18.017Z,6.80
2017-09-06T09:40:45.541Z,14.80
2017-09-06T09:43:13.073Z,7.77
2017-09-06T09:45:40.552Z,9.20
2017-09-06T09:48:08.031Z,14.00
2017-09-06T09:50:35.515Z,8.90
2017-09-06T09:53:03.068Z,9.77
2017-09-06T09:55:30.579Z,6.53
2017-09-06T09:57:58.053Z,10.60
2017-09-06T10:00:25.534Z,6.33
2017-09-06T10:02:53.016Z,5.43
2017-09-06T10:05:20.564Z,7.23
2017-09-06T10:07:48.061Z,9.50
2017-09-06T10:10:15.537Z,5.10
2017-09-06T10:12:43.013Z,7.27
2017-09-06T10:15:10.504Z,10.37
2017-09-06T10:17:37.977Z,8.30
2017-09-06T10:20:05.468Z,7.33
2017-09-06T10:22:32.933Z,6.73
2017-09-06T10:25:00.399Z,6.57
2017-09-06T10:27:27.899Z,5.93
2017-09-06T10:29:55.420Z,9.47
2017-09-06T10:32:22.923Z,3.00
2017-09-06T10:34:50.413Z,6.20
2017-09-06T10:37:17.896Z,5.77
2017-09-06T10:39:45.380Z,3.13
2017-09-06T10:42:12.848Z,3.90
2017-09-06T10:44:40.339Z,8.03
2017-09-06T10:47:07.812Z,7.57
2017-09-06T10:49:35.312Z,4.77
2017-09-06T10:52:02.803Z,3.77
2017-09-06T10:54:30.367Z,4.23
2017-09-06T10:56:57.880Z,4.57
2017-09-06T10:59:25.352Z,6.23
2017-09-06T11:01:52.827Z,3.53
2017-09-06T11:04:20.310Z,4.20
2017-09-06T11:06:47.820Z,6.20
2017-09-06T11:09:15.328Z,5.03
2017-09-06T11:11:42.804Z,3.97
2017-09-06T11:14:10.276Z,5.37
2017-09-06T11:16:37.758Z,5.97
2017-09-06T11:19:05.241Z,4.27
2017-09-06T11:21:32.732Z,3.93
2017-09-06T11:24:00.204Z,3.33
2017-09-06T11:26:27.688Z,6.97
2017-09-06T11:28:55.179Z,6.77
2017-09-06T11:31:22.652Z,7.17
2017-09-06T11:33:50.143Z,4.60
2017-09-06T11:36:17.612Z,5.87
2017-09-06T11:38:45.088Z,5.67
2017-09-06T11:41:12.582Z,6.93
2017-09-06T11:43:40.059Z,5.40
2017-09-06T11:46:07.547Z,3.70
2017-09-06T11:48:35.033Z,7.13
2017-09-06T11:51:02.506Z,7.17
2017-09-06T11:53:30.005Z,19.53
2017-09-06T11:55:57.483Z,5.13
2017-09-06T11:58:24.978Z,6.63
2017-09-06T12:00:52.463Z,8.53
2017-09-06T12:03:19.963Z,5.53
2017-09-06T12:05:47.449Z,7.97
2017-09-06T12:08:14.924Z,6.53
2017-09-06T12:10:42.422Z,3.43
2017-09-06T12:13:09.902Z,6.37
2017-09-06T12:15:37.391Z,3.30
2017-09-06T12:18:04.907Z,8.23
2017-09-06T12:20:32.396Z,5.80
2017-09-06T12:22:59.913Z,6.20
2017-09-06T12:25:27.385Z,7.73
2017-09-06T12:27:54.883Z,5.47
2017-09-06T12:30:22.377Z,14.43
2017-09-06T12:32:49.856Z,10.03
2017-09-06T12:35:17.463Z,5.83
2017-09-06T12:37:44.927Z,6.13
2017-09-06T12:40:12.404Z,11.80
2017-09-06T12:42:39.887Z,5.27
2017-09-06T12:45:07.369Z,5.83
2017-09-06T12:47:34.916Z,4.30
2017-09-06T12:50:02.382Z,8.40
2017-09-06T12:52:29.868Z,14.13
2017-09-06T12:54:57.371Z,7.80
2017-09-06T12:57:24.851Z,6.57
2017-09-06T12:59:52.372Z,6.60
2017-09-06T13:02:19.849Z,6.70
2017-09-06T13:04:47.328Z,6.20
2017-09-06T13:07:14.811Z,7.90
2017-09-06T13:09:43.067Z,7.93
2017-09-06T13:12:10.562Z,4.87
2017-09-06T13:14:38.751Z,6.90
2017-09-06T13:17:06.229Z,6.33
2017-09-06T13:19:33.751Z,8.50
2017-09-06T13:22:01.228Z,7.77
2017-09-06T13:24:28.720Z,5.50
2017-09-06T13:26:56.199Z,6.97
2017-09-06T13:29:23.678Z,4.00
2017-09-06T13:31:51.171Z,7.20
2017-09-06T13:34:18.656Z,8.77
2017-09-06T13:36:46.148Z,6.33
2017-09-06T13:39:13.642Z,7.70
2017-09-06T13:41:41.112Z,4.77
2017-09-06T13:44:08.596Z,8.33
2017-09-06T13:46:36.100Z,8.00
2017-09-06T13:49:03.624Z,6.77
2017-09-06T13:51:31.114Z,6.00
2017-09-06T13:53:58.668Z,6.80
2017-09-06T13:56:26.184Z,8.57
2017-09-06T13:58:53.671Z,7.10
2017-09-06T14:01:21.176Z,7.07
2017-09-06T14:03:48.648Z,9.13
2017-09-06T14:06:16.119Z,9.60
2017-09-06T14:08:43.615Z,7.00
2017-09-06T15:03:43.551Z,5.80
2017-09-06T15:06:11.120Z,10.17
2017-09-06T15:08:38.597Z,10.60
2017-09-06T15:11:06.120Z,8.93
2017-09-06T15:13:34.571Z,10.60
2017-09-06T15:16:02.052Z,11.00
2017-09-06T15:18:29.580Z,7.63
2017-09-06T15:20:57.052Z,8.40
2017-09-06T15:23:24.523Z,12.87
2017-09-06T15:25:52.024Z,11.20
2017-09-06T15:28:19.494Z,10.03
2017-09-06T15:30:46.967Z,10.33
2017-09-06T15:33:14.471Z,15.00
2017-09-06T15:35:41.978Z,12.77
2017-09-06T15:38:09.457Z,13.80
2017-09-06T15:40:36.964Z,13.93
2017-09-06T15:43:04.440Z,8.20
2017-09-06T15:45:31.920Z,15.07
2017-09-06T15:47:59.419Z,17.97
2017-09-06T15:50:26.901Z,14.03
2017-09-06T15:52:54.388Z,6.83
2017-09-06T15:55:21.899Z,18.97
2017-09-06T15:57:49.368Z,13.37
2017-09-06T16:00:16.861Z,10.90
2017-09-06T16:02:44.423Z,10.43
2017-09-06T16:05:11.906Z,14.60
2017-09-06T16:07:39.481Z,10.77
2017-09-06T16:10:07.106Z,16.40
2017-09-06T16:12:34.583Z,12.87
2017-09-06T16:15:02.356Z,7.33
2017-09-06T16:17:29.847Z,12.53
2017-09-06T16:19:57.333Z,13.33
2017-09-06T16:22:24.809Z,12.00
2017-09-06T16:24:52.316Z,9.03
2017-09-06T16:27:19.884Z,17.27
2017-09-06T16:29:47.360Z,10.83
2017-09-06T16:32:14.859Z,12.73
2017-09-06T16:34:42.335Z,13.23
2017-09-06T16:37:09.811Z,13.40
2017-09-06T16:39:37.324Z,11.77
2017-09-06T16:42:04.801Z,9.37
2017-09-06T16:44:32.272Z,14.43
2017-09-06T16:46:59.767Z,9.50
2017-09-06T16:49:27.248Z,11.37
2017-09-06T16:51:54.745Z,11.10
2017-09-06T16:54:22.238Z,17.87
2017-09-06T16:56:49.728Z,12.73
2017-09-06T16:59:17.240Z,11.57
2017-09-06T17:01:44.715Z,6.83
2017-09-06T17:04:12.211Z,9.20
2017-09-06T17:06:39.733Z,11.73
2017-09-06T17:09:07.213Z,8.40
2017-09-06T17:11:34.824Z,9.77
2017-09-06T17:14:02.317Z,12.00
2017-09-06T17:16:29.797Z,8.00
2017-09-06T17:18:57.287Z,7.07
2017-09-06T17:21:24.765Z,11.87
2017-09-06T17:23:52.243Z,12.80
2017-09-06T17:26:19.745Z,13.50
2017-09-06T17:28:47.276Z,12.80
2017-09-06T17:31:14.780Z,10.03
2017-09-06T17:33:42.259Z,6.70
2017-09-06T17:36:09.748Z,11.20
2017-09-06T17:38:37.239Z,9.97
2017-09-06T17:41:04.719Z,10.23
2017-09-06T17:43:33.092Z,12.67
2017-09-06T17:46:00.568Z,10.90
2017-09-06T17:48:28.072Z,12.07
2017-09-06T17:50:56.633Z,13.23
2017-09-06T17:53:24.128Z,9.70
2017-09-06T17:55:51.646Z,12.87
2017-09-06T17:58:19.132Z,12.93
2017-09-06T18:00:46.599Z,15.60
2017-09-06T18:03:14.092Z,10.63
2017-09-06T18:05:41.568Z,10.57
2017-09-06T18:08:09.075Z,12.77
2017-09-06T18:10:36.547Z,13.33
2017-09-06T18:13:04.024Z,16.07
2017-09-06T18:15:31.534Z,9.97
2017-09-06T18:17:59.028Z,16.30
2017-09-06T18:20:26.531Z,17.90
2017-09-06T18:22:54.004Z,8.30
2017-09-06T18:25:21.540Z,12.30
2017-09-06T18:27:49.039Z,20.07
2017-09-06T18:30:16.593Z,15.60
2017-09-06T18:32:44.113Z,13.43
2017-09-06T18:35:12.386Z,15.87
2017-09-06T18:37:39.870Z,12.87
2017-09-06T18:40:07.389Z,16.97
2017-09-06T18:42:34.871Z,15.83
2017-09-06T18:45:02.388Z,12.30
2017-09-06T18:47:29.876Z,10.93
2017-09-06T18:49:57.383Z,9.23
2017-09-06T18:52:24.940Z,13.57
2017-09-06T18:54:52.444Z,19.63
2017-09-06T18:57:19.987Z,11.07
2017-09-06T18:59:47.495Z,10.70
2017-09-06T19:02:14.972Z,14.33
2017-09-06T19:04:42.464Z,11.03
2017-09-06T19:07:09.943Z,14.50
2017-09-06T19:09:37.454Z,25.67
2017-09-06T19:12:04.943Z,17.73
2017-09-06T19:14:32.416Z,16.93
2017-09-06T19:16:59.944Z,15.70
2017-09-06T19:19:27.419Z,14.33
2017-09-06T19:21:54.924Z,11.40
2017-09-06T19:24:22.473Z,16.53
2017-09-06T19:26:49.940Z,15.97
2017-09-06T19:29:17.454Z,11.60
2017-09-06T19:31:44.943Z,15.50
2017-09-06T19:34:12.453Z,15.20
2017-09-06T19:36:39.934Z,11.10
2017-09-06T19:39:07.442Z,17.53
2017-09-06T19:41:34.962Z,20.37
2017-09-06T19:44:02.471Z,13.07
2017-09-06T19:46:30.066Z,15.63
2017-09-06T19:48:57.928Z,16.70
2017-09-06T19:51:25.440Z,14.37
2017-09-06T19:53:53.032Z,20.93
2017-09-06T19:56:20.511Z,16.80
2017-09-06T19:58:48.048Z,20.43
2017-09-06T20:01:15.572Z,11.90
2017-09-06T20:03:43.052Z,16.20
2017-09-06T20:06:10.758Z,16.47
2017-09-06T20:08:38.246Z,17.63
2017-09-06T20:11:05.839Z,15.77
2017-09-06T20:13:33.394Z,15.17
2017-09-06T20:16:00.926Z,10.40
2017-09-06T20:18:28.514Z,14.67
2017-09-06T20:20:56.020Z,17.27
2017-09-06T20:23:23.516Z,15.80
2017-09-06T20:25:51.016Z,16.50
2017-09-06T20:28:18.560Z,16.53
2017-09-06T20:30:46.092Z,14.40
2017-09-06T20:33:13.567Z,15.20
2017-09-06T20:35:41.070Z,10.90
2017-09-06T20:38:08.543Z,12.03
2017-09-06T20:40:36.011Z,16.10
2017-09-06T20:43:03.524Z,15.67
2017-09-06T20:45:31.004Z,13.07
2017-09-06T20:47:58.500Z,20.13
2017-09-06T20:50:25.977Z,16.83
2017-09-06T20:52:53.459Z,13.17
2017-09-06T20:55:20.944Z,15.40
2017-09-06T20:57:48.423Z,18.70
2017-09-06T21:00:15.919Z,15.67
2017-09-06T21:02:43.396Z,13.17
2017-09-06T21:05:10.877Z,13.50
2017-09-06T21:07:38.369Z,17.93
2017-09-06T21:10:05.843Z,12.53
2017-09-06T21:12:33.344Z,15.70
2017-09-06T21:15:00.820Z,14.03
2017-09-06T21:17:28.295Z,16.20
2017-09-06T21:19:55.839Z,18.57
2017-09-06T21:22:23.314Z,15.70
2017-09-06T21:24:50.862Z,13.37
2017-09-06T21:27:18.343Z,19.53
2017-09-06T21:29:45.811Z,28.03
2017-09-06T21:32:13.291Z,16.97
2017-09-06T21:34:40.771Z,16.60
2017-09-06T21:37:08.264Z,13.50
2017-09-06T21:39:35.772Z,14.03
2017-09-06T21:42:03.264Z,15.60
2017-09-06T21:44:30.832Z,14.07
2017-09-06T21:46:58.632Z,15.63
2017-09-06T21:49:26.124Z,10.80
2017-09-06T21:51:53.635Z,14.10
2017-09-06T21:54:21.111Z,13.93
2017-09-06T21:56:48.607Z,18.90
2017-09-06T21:59:16.081Z,14.07
2017-09-06T22:01:43.578Z,17.33
2017-09-06T22:04:11.063Z,17.73
2017-09-06T22:06:38.538Z,15.47
2017-09-06T22:09:06.023Z,15.53
2017-09-06T22:11:33.511Z,17.13
2017-09-06T22:14:01.020Z,13.60
2017-09-06T22:16:28.499Z,14.60
2017-09-06T22:18:55.972Z,20.90
2017-09-06T22:21:23.464Z,30.10
2017-09-06T22:23:50.939Z,18.10
2017-09-06T22:26:18.436Z,17.60
2017-09-06T22:28:45.931Z,22.43
2017-09-06T22:31:13.414Z,20.90
2017-09-06T22:33:40.907Z,17.70
2017-09-06T22:36:08.387Z,23.57
2017-09-06T22:38:35.925Z,21.30
2017-09-06T22:41:03.404Z,20.23
2017-09-06T22:43:30.879Z,12.97
2017-09-06T22:45:58.381Z,27.73
2017-09-06T22:48:25.892Z,15.80
2017-09-06T22:50:53.394Z,28.63
2017-09-06T22:53:20.864Z,15.50
2017-09-06T22:55:48.335Z,21.67
2017-09-06T22:58:15.815Z,25.70
2017-09-06T23:00:43.293Z,13.57
2017-09-06T23:03:10.783Z,18.30
2017-09-06T23:05:38.260Z,16.60
2017-09-06T23:08:05.732Z,15.50
2017-09-06T23:10:33.219Z,24.27
2017-09-06T23:13:00.706Z,24.13
2017-09-06T23:15:28.204Z,63.57
2017-09-06T23:17:55.692Z,21.87
2017-09-06T23:20:23.172Z,20.27
2017-09-06T23:22:50.665Z,19.53
2017-09-06T23:25:18.148Z,16.10
2017-09-06T23:27:45.638Z,14.23
2017-09-06T23:30:13.116Z,16.70
2017-09-06T23:32:40.584Z,14.60
2017-09-06T23:35:08.072Z,17.90
2017-09-06T23:37:35.543Z,23.03
2017-09-06T23:40:03.035Z,14.77
2017-09-06T23:42:30.515Z,17.77
2017-09-06T23:44:57.988Z,22.97
2017-09-06T23:47:25.575Z,20.63
2017-09-06T23:49:53.055Z,22.53
2017-09-06T23:52:20.551Z,17.80
2017-09-06T23:54:48.028Z,12.93
2017-09-06T23:57:15.495Z,19.60
2017-09-06T23:59:42.984Z,15.90
